createdAt,value
2023-07-03T00:01:53.538Z,10.30
2023-07-03T00:04:24.176Z,11.13
2023-07-03T00:06:54.557Z,10.15
2023-07-03T00:09:24.268Z,11.73
2023-07-03T00:11:54.391Z,11.40
2023-07-03T00:14:24.503Z,12.60
2023-07-03T00:16:56.385Z,11.13
2023-07-03T00:22:01.158Z,11.78
2023-07-03T00:24:32.960Z,11.17
2023-07-03T00:27:03.081Z,11.00
2023-07-03T00:29:34.636Z,11.90
2023-07-03T00:34:34.057Z,12.83
2023-07-03T00:37:07.837Z,11.23
2023-07-03T00:39:37.976Z,12.50
2023-07-03T00:42:09.784Z,13.08
2023-07-03T00:44:39.846Z,13.23
2023-07-03T00:47:11.859Z,10.40
2023-07-03T00:52:12.568Z,11.57
2023-07-03T00:54:43.191Z,11.07
2023-07-03T00:57:15.350Z,11.63
2023-07-03T00:59:46.495Z,12.37
2023-07-03T01:02:21.294Z,11.43
2023-07-03T01:04:57.067Z,13.37
2023-07-03T01:07:31.189Z,12.53
2023-07-03T01:10:04.809Z,14.23
2023-07-03T01:12:38.544Z,12.40
2023-07-03T01:15:14.799Z,12.57
2023-07-03T01:17:48.078Z,11.73
2023-07-03T01:20:20.456Z,13.57
2023-07-03T01:23:00.374Z,13.13
2023-07-03T01:25:32.483Z,13.10
2023-07-03T01:28:04.714Z,13.03
2023-07-03T01:30:36.899Z,12.70
2023-07-03T01:33:08.459Z,13.10
2023-07-03T01:35:40.157Z,12.13
2023-07-03T01:38:11.241Z,14.90
2023-07-03T01:40:41.416Z,13.53
2023-07-03T01:43:13.320Z,12.40
2023-07-03T01:48:11.955Z,12.63
2023-07-03T01:50:43.753Z,11.00
2023-07-03T01:53:19.201Z,12.17
2023-07-03T01:55:57.286Z,14.50
2023-07-03T01:58:33.367Z,13.40
2023-07-03T02:01:06.215Z,12.87
2023-07-03T02:03:41.261Z,13.53
2023-07-03T02:06:16.799Z,12.90
2023-07-03T02:08:48.816Z,13.40
2023-07-03T02:11:21.716Z,12.53
2023-07-03T02:13:54.358Z,13.53
2023-07-03T02:16:30.188Z,14.47
2023-07-03T02:19:01.128Z,15.27
2023-07-03T02:21:31.045Z,14.00
2023-07-03T02:24:01.789Z,14.70
2023-07-03T02:26:31.695Z,14.93
2023-07-03T02:29:02.029Z,13.83
2023-07-03T02:31:32.753Z,14.33
2023-07-03T02:34:02.458Z,13.17
2023-07-03T02:36:37.503Z,13.70
2023-07-03T02:39:09.869Z,15.13
2023-07-03T02:41:39.769Z,14.27
2023-07-03T02:44:10.922Z,12.35
2023-07-03T02:46:42.828Z,16.23
2023-07-03T02:49:12.934Z,13.53
2023-07-03T02:54:14.057Z,15.60
2023-07-03T02:56:44.584Z,17.10
2023-07-03T02:59:15.531Z,14.25
2023-07-03T03:01:45.847Z,16.02
2023-07-03T03:04:16.860Z,14.57
2023-07-03T03:06:47.306Z,14.93
2023-07-03T03:09:17.459Z,14.03
2023-07-03T03:11:47.543Z,14.73
2023-07-03T03:14:17.351Z,13.80
2023-07-03T03:16:47.434Z,15.10
2023-07-03T03:19:17.828Z,15.30
2023-07-03T03:21:50.480Z,15.40
2023-07-03T03:24:20.941Z,12.70
2023-07-03T03:26:51.537Z,16.30
2023-07-03T03:29:21.574Z,13.53
2023-07-03T03:31:51.774Z,14.47
2023-07-03T03:34:21.694Z,14.90
2023-07-03T03:36:51.810Z,14.40
2023-07-03T03:39:21.922Z,15.83
2023-07-03T03:41:52.046Z,13.73
2023-07-03T03:44:22.164Z,13.87
2023-07-03T03:46:54.343Z,13.53
2023-07-03T03:49:25.677Z,15.57
2023-07-03T03:51:56.612Z,14.53
2023-07-03T03:54:28.390Z,16.43
2023-07-03T03:56:58.488Z,13.00
2023-07-03T03:59:29.018Z,14.33
2023-07-03T04:01:59.185Z,12.83
2023-07-03T04:04:29.800Z,16.63
2023-07-03T04:07:00.393Z,16.23
2023-07-03T04:09:30.517Z,17.50
2023-07-03T04:12:01.123Z,17.37
2023-07-03T04:14:31.366Z,17.80
2023-07-03T04:17:02.344Z,16.80
2023-07-03T04:19:32.624Z,13.80
2023-07-03T04:22:02.753Z,18.60
2023-07-03T04:24:32.857Z,17.70
2023-07-03T04:27:04.204Z,17.13
2023-07-03T04:29:34.324Z,15.78
2023-07-03T04:32:04.729Z,15.67
2023-07-03T04:34:34.990Z,17.67
2023-07-03T04:37:09.152Z,19.10
2023-07-03T04:39:39.104Z,16.57
2023-07-03T04:42:14.048Z,17.13
2023-07-03T04:44:44.125Z,19.47
2023-07-03T04:47:16.845Z,16.80
2023-07-03T04:49:49.206Z,17.30
2023-07-03T04:52:20.323Z,17.87
2023-07-03T04:54:50.267Z,17.05
2023-07-03T04:57:20.166Z,17.57
2023-07-03T04:59:50.628Z,18.50
2023-07-03T05:02:21.663Z,18.20
2023-07-03T05:04:52.003Z,20.95
2023-07-03T05:07:23.724Z,17.77
2023-07-03T05:09:54.454Z,19.60
2023-07-03T05:12:24.240Z,17.80
2023-07-03T05:14:55.712Z,16.00
2023-07-03T05:17:26.047Z,17.62
2023-07-03T05:19:56.978Z,17.87
2023-07-03T05:22:27.509Z,18.45
2023-07-03T05:24:57.629Z,15.77
2023-07-03T05:27:27.741Z,16.33
2023-07-03T05:29:58.654Z,15.23
2023-07-03T05:32:28.695Z,16.23
2023-07-03T05:34:58.910Z,15.60
2023-07-03T05:37:28.873Z,15.90
2023-07-03T05:39:58.951Z,13.67
2023-07-03T05:42:29.278Z,20.53
2023-07-03T05:44:59.804Z,17.50
2023-07-03T05:47:31.163Z,17.30
2023-07-03T05:50:01.267Z,16.48
2023-07-03T05:52:32.196Z,13.73
2023-07-03T05:55:02.306Z,14.18
2023-07-03T05:57:32.617Z,14.87
2023-07-03T06:00:06.372Z,13.57
2023-07-03T06:02:44.091Z,16.60
2023-07-03T06:05:16.310Z,21.97
2023-07-03T06:07:46.640Z,12.17
2023-07-03T06:10:16.571Z,13.67
2023-07-03T06:12:46.462Z,15.00
2023-07-03T06:15:17.004Z,16.87
2023-07-03T06:17:47.328Z,13.33
2023-07-03T06:20:17.504Z,12.10
2023-07-03T06:22:47.264Z,12.20
2023-07-03T06:25:17.463Z,14.67
2023-07-03T06:27:47.785Z,11.53
2023-07-03T06:30:17.601Z,14.73
2023-07-03T06:32:47.437Z,11.30
2023-07-03T06:35:18.959Z,16.33
2023-07-03T06:37:49.278Z,13.23
2023-07-03T06:40:20.011Z,12.40
2023-07-03T06:42:49.666Z,15.13
2023-07-03T06:45:22.294Z,16.77
2023-07-03T06:47:52.758Z,17.13
2023-07-03T06:50:22.774Z,12.23
2023-07-03T06:52:52.858Z,12.93
2023-07-03T06:55:22.984Z,12.85
2023-07-03T06:57:52.894Z,10.70
2023-07-03T07:00:24.089Z,10.13
2023-07-03T07:02:54.436Z,9.30
2023-07-03T07:05:24.558Z,8.80
2023-07-03T07:07:54.730Z,9.73
2023-07-03T07:10:25.296Z,10.40
2023-07-03T07:12:55.404Z,12.30
2023-07-03T07:15:25.571Z,10.90
2023-07-03T07:17:55.761Z,9.37
2023-07-03T07:20:25.528Z,9.70
2023-07-03T07:22:55.239Z,9.07
2023-07-03T07:25:25.153Z,10.90
2023-07-03T07:27:55.136Z,11.07
2023-07-03T07:30:25.103Z,11.90
2023-07-03T07:32:55.802Z,10.13
2023-07-03T07:35:25.903Z,10.43
2023-07-03T07:37:55.739Z,9.30
2023-07-03T07:40:26.845Z,14.28
2023-07-03T07:42:56.668Z,9.17
2023-07-03T07:45:26.354Z,11.10
2023-07-03T07:47:56.763Z,9.47
2023-07-03T07:50:28.806Z,10.03
2023-07-03T07:53:00.602Z,11.17
2023-07-03T07:55:30.655Z,9.87
2023-07-03T07:58:00.965Z,10.17
2023-07-03T08:00:30.977Z,11.23
2023-07-03T08:03:01.247Z,10.10
2023-07-03T08:05:32.130Z,11.63
2023-07-03T08:08:02.294Z,10.75
2023-07-03T08:10:32.188Z,27.67
2023-07-03T08:13:02.595Z,9.63
2023-07-03T08:15:32.500Z,10.78
2023-07-03T08:18:03.069Z,10.10
2023-07-03T08:20:32.874Z,9.35
2023-07-03T08:23:02.911Z,8.60
2023-07-03T08:25:32.993Z,10.17
2023-07-03T08:28:02.915Z,9.53
2023-07-03T08:30:33.221Z,10.60
2023-07-03T08:33:03.727Z,10.90
2023-07-03T08:38:05.441Z,8.78
2023-07-03T08:40:35.479Z,9.63
2023-07-03T08:43:07.448Z,10.63
2023-07-03T08:45:39.313Z,11.10
2023-07-03T08:48:15.395Z,11.07
2023-07-03T08:50:47.689Z,9.13
2023-07-03T08:53:20.873Z,10.53
2023-07-03T08:55:55.661Z,9.23
2023-07-03T08:58:26.235Z,9.20
2023-07-03T09:03:42.756Z,9.70
2023-07-03T09:06:19.523Z,9.83
2023-07-03T09:09:01.519Z,8.30
2023-07-03T09:11:36.713Z,8.83
2023-07-03T09:14:12.619Z,8.50
2023-07-03T09:16:45.826Z,9.03
2023-07-03T09:19:21.666Z,9.10
2023-07-03T09:21:55.687Z,10.80
2023-07-03T09:24:30.981Z,9.87
2023-07-03T09:27:10.381Z,10.73
2023-07-03T09:29:42.631Z,8.30
2023-07-03T09:32:23.137Z,9.13
2023-07-03T09:35:06.427Z,7.70
2023-07-03T09:37:38.482Z,11.80
2023-07-03T09:40:14.496Z,8.90
2023-07-03T09:42:45.100Z,8.97
2023-07-03T09:45:18.159Z,9.37
2023-07-03T09:47:54.070Z,10.20
2023-07-03T09:50:29.976Z,7.97
2023-07-03T09:53:08.539Z,9.60
2023-07-03T09:55:39.931Z,13.20
2023-07-03T09:58:15.929Z,11.73
2023-07-03T10:00:49.584Z,9.37
2023-07-03T10:08:45.803Z,8.45
2023-07-03T10:11:23.397Z,8.13
2023-07-03T10:13:54.581Z,11.50
2023-07-03T10:16:27.159Z,9.97
2023-07-03T10:18:59.286Z,8.57
2023-07-03T10:21:31.297Z,9.33
2023-07-03T10:24:02.433Z,8.03
2023-07-03T10:26:40.959Z,10.43
2023-07-03T10:29:20.046Z,10.13
2023-07-03T10:31:53.458Z,9.13
2023-07-03T10:34:28.512Z,18.13
2023-07-03T10:37:02.255Z,8.30
2023-07-03T10:39:42.055Z,8.60
2023-07-03T10:42:20.138Z,8.90
2023-07-03T10:44:57.622Z,9.00
2023-07-03T10:47:39.509Z,8.93
2023-07-03T10:50:12.047Z,10.33
2023-07-03T10:52:48.300Z,12.43
2023-07-03T10:55:25.467Z,9.67
2023-07-03T10:58:02.898Z,8.37
2023-07-03T11:00:40.391Z,10.53
2023-07-03T11:03:21.275Z,8.57
2023-07-03T11:05:57.757Z,11.17
2023-07-03T11:08:37.134Z,11.40
2023-07-03T11:11:15.445Z,11.17
2023-07-03T11:13:52.486Z,10.43
2023-07-03T11:16:29.966Z,9.60
2023-07-03T11:24:32.141Z,7.83
2023-07-03T11:29:44.836Z,9.57
2023-07-03T11:32:17.148Z,10.70
2023-07-03T11:40:27.472Z,9.13
2023-07-03T11:46:21.869Z,8.20
2023-07-03T11:48:57.918Z,10.67
2023-07-03T11:51:36.660Z,14.03
2023-07-03T11:54:19.658Z,11.17
2023-07-03T11:57:03.039Z,8.70
2023-07-03T11:59:38.760Z,8.47
2023-07-03T12:02:44.405Z,11.50
2023-07-03T12:05:54.184Z,11.10
2023-07-03T12:08:42.858Z,9.87
2023-07-03T12:11:15.050Z,9.47
2023-07-03T12:13:54.287Z,7.80
2023-07-03T12:16:28.408Z,12.53
2023-07-03T12:19:05.051Z,10.20
2023-07-03T12:21:46.854Z,11.63
2023-07-03T12:24:22.769Z,9.10
2023-07-03T12:26:55.492Z,14.40
2023-07-03T12:29:25.182Z,11.13
2023-07-03T12:32:05.862Z,8.93
2023-07-03T12:34:37.921Z,9.03
2023-07-03T12:37:15.390Z,9.87
2023-07-03T12:39:46.322Z,10.50
2023-07-03T12:42:19.876Z,8.87
2023-07-03T12:44:50.260Z,10.30
2023-07-03T12:47:22.253Z,10.45
2023-07-03T12:49:56.491Z,8.97
2023-07-03T12:52:27.478Z,10.73
2023-07-03T12:55:14.065Z,8.93
2023-07-03T12:57:46.050Z,9.00
2023-07-03T13:00:25.993Z,10.63
2023-07-03T13:03:00.639Z,11.17
2023-07-03T13:05:34.192Z,10.35
2023-07-03T13:08:07.741Z,8.93
2023-07-03T13:10:38.131Z,10.50
2023-07-03T13:13:10.889Z,12.45
2023-07-03T13:15:43.284Z,13.10
2023-07-03T13:18:20.579Z,7.90
2023-07-03T13:20:59.539Z,9.93
2023-07-03T13:23:32.454Z,10.97
2023-07-03T13:26:04.398Z,11.40
2023-07-03T13:28:36.700Z,11.57
2023-07-03T13:31:12.543Z,13.73
2023-07-03T13:33:44.662Z,11.03
2023-07-03T13:36:27.093Z,9.70
2023-07-03T13:39:07.913Z,11.27
2023-07-03T13:44:09.666Z,7.95
2023-07-03T13:46:40.585Z,8.13
2023-07-03T13:49:11.097Z,8.50
2023-07-03T13:51:42.697Z,6.70
2023-07-03T13:54:13.287Z,7.63
2023-07-03T13:56:44.172Z,9.60
2023-07-03T13:59:14.436Z,8.63
2023-07-03T14:01:45.279Z,7.35
2023-07-03T14:04:15.241Z,7.93
2023-07-03T14:06:46.114Z,10.65
2023-07-03T14:09:16.195Z,13.70
2023-07-03T14:11:46.521Z,8.63
2023-07-03T14:14:16.222Z,8.47
2023-07-03T14:16:46.552Z,9.27
2023-07-03T14:19:16.875Z,7.55
2023-07-03T14:21:46.792Z,7.67
2023-07-03T14:24:17.112Z,8.93
2023-07-03T14:26:46.818Z,7.77
2023-07-03T14:29:17.348Z,10.80
2023-07-03T14:31:49.358Z,8.90
2023-07-03T14:34:20.184Z,10.77
2023-07-03T14:36:50.172Z,11.47
2023-07-03T14:39:20.282Z,8.63
2023-07-03T14:41:50.602Z,10.35
2023-07-03T14:44:20.461Z,8.93
2023-07-03T14:46:50.637Z,8.37
2023-07-03T14:49:20.557Z,7.12
2023-07-03T14:51:50.874Z,8.00
2023-07-03T14:54:23.194Z,9.63
2023-07-03T14:56:53.364Z,9.90
2023-07-03T14:59:23.497Z,9.88
2023-07-03T15:01:53.265Z,8.70
2023-07-03T15:04:23.228Z,12.63
2023-07-03T15:06:54.054Z,8.50
2023-07-03T15:09:25.192Z,10.93
2023-07-03T15:11:55.511Z,10.10
2023-07-03T15:14:25.777Z,9.83
2023-07-03T15:16:55.689Z,7.03
2023-07-03T15:19:26.077Z,7.62
2023-07-03T15:21:56.396Z,9.63
2023-07-03T15:24:27.068Z,9.98
2023-07-03T15:26:57.387Z,10.60
2023-07-03T15:29:28.053Z,9.95
2023-07-03T15:34:28.208Z,9.07
2023-07-03T15:36:58.131Z,10.40
2023-07-03T15:39:28.262Z,7.83
2023-07-03T15:41:58.566Z,8.85
2023-07-03T15:44:28.595Z,8.63
2023-07-03T15:46:58.666Z,10.87
2023-07-03T15:49:31.657Z,9.95
2023-07-03T15:52:02.736Z,8.97
2023-07-03T15:54:35.788Z,6.45
2023-07-03T15:57:08.212Z,7.73
2023-07-03T15:59:38.208Z,7.37
2023-07-03T16:02:08.821Z,11.20
2023-07-03T16:04:38.924Z,8.33
2023-07-03T16:07:09.185Z,7.30
2023-07-03T16:09:39.295Z,10.47
2023-07-03T16:12:10.388Z,10.87
2023-07-03T16:17:09.519Z,9.23
2023-07-03T16:19:40.185Z,9.25
2023-07-03T16:22:10.298Z,10.15
2023-07-03T16:24:39.810Z,8.47
2023-07-03T16:27:09.928Z,10.90
2023-07-03T16:29:43.083Z,8.00
2023-07-03T16:32:13.441Z,8.93
2023-07-03T16:34:43.237Z,9.03
2023-07-03T16:37:13.272Z,9.17
2023-07-03T16:39:43.187Z,7.67
2023-07-03T16:42:13.125Z,8.00
2023-07-03T16:44:43.215Z,10.73
2023-07-03T16:47:13.194Z,11.63
2023-07-03T16:49:43.662Z,13.77
2023-07-03T16:52:15.006Z,8.60
2023-07-03T16:54:45.255Z,8.50
2023-07-03T16:57:15.042Z,9.70
2023-07-03T16:59:45.772Z,7.50
2023-07-03T17:02:16.215Z,10.65
2023-07-03T17:04:46.103Z,8.30
2023-07-03T17:07:16.126Z,10.80
2023-07-03T17:09:46.457Z,8.73
2023-07-03T17:12:16.372Z,8.47
2023-07-03T17:14:46.059Z,8.10
2023-07-03T17:17:17.679Z,11.13
2023-07-03T17:19:47.957Z,10.17
2023-07-03T17:22:17.662Z,9.33
2023-07-03T17:24:47.935Z,17.17
2023-07-03T17:27:17.905Z,17.03
2023-07-03T17:29:48.224Z,12.23
2023-07-03T17:32:18.143Z,8.53
2023-07-03T17:34:48.264Z,12.67
2023-07-03T17:37:18.582Z,10.40
2023-07-03T17:39:48.906Z,8.08
2023-07-03T17:42:19.148Z,8.45
2023-07-03T17:44:49.146Z,8.40
2023-07-03T17:47:19.682Z,9.63
2023-07-03T17:49:50.004Z,9.15
2023-07-03T17:52:20.109Z,8.90
2023-07-03T17:54:50.232Z,11.10
2023-07-03T17:57:20.484Z,9.93
2023-07-03T17:59:50.588Z,9.27
2023-07-03T18:02:20.599Z,9.70
2023-07-03T18:04:50.479Z,10.27
2023-07-03T18:07:21.361Z,10.23
2023-07-03T18:09:51.357Z,10.08
2023-07-03T18:12:21.668Z,10.73
2023-07-03T18:14:51.586Z,10.00
2023-07-03T18:17:21.716Z,8.83
2023-07-03T18:19:51.616Z,9.53
2023-07-03T18:22:21.736Z,9.10
2023-07-03T18:24:52.477Z,11.22
2023-07-03T18:27:22.795Z,15.50
2023-07-03T18:29:52.678Z,17.23
2023-07-03T18:32:23.808Z,9.10
2023-07-03T18:34:53.979Z,11.20
2023-07-03T18:37:26.135Z,11.13
2023-07-03T18:39:56.684Z,9.07
2023-07-03T18:42:27.010Z,12.40
2023-07-03T18:44:57.113Z,11.75
2023-07-03T18:47:30.703Z,14.27
2023-07-03T18:50:01.244Z,13.10
2023-07-03T18:52:31.564Z,14.20
2023-07-03T18:55:01.471Z,14.97
2023-07-03T18:57:32.540Z,15.20
2023-07-03T19:05:06.336Z,12.40
2023-07-03T19:07:36.791Z,14.43
2023-07-03T19:10:17.827Z,12.60
2023-07-03T19:12:48.912Z,13.73
2023-07-03T19:15:19.996Z,16.77
2023-07-03T19:17:50.124Z,10.10
2023-07-03T19:20:21.520Z,14.58
2023-07-03T19:22:52.857Z,16.60
2023-07-03T19:25:22.575Z,9.63
2023-07-03T19:27:52.677Z,13.70
2023-07-03T19:30:22.827Z,14.00
2023-07-03T19:32:52.929Z,13.77
2023-07-03T19:35:23.056Z,17.23
2023-07-03T19:37:54.388Z,15.93
2023-07-03T19:40:25.117Z,15.03
2023-07-03T19:42:55.227Z,17.05
2023-07-03T19:45:25.181Z,15.17
2023-07-03T19:47:55.212Z,11.20
2023-07-03T19:50:25.425Z,18.97
2023-07-03T19:52:55.701Z,17.83
2023-07-03T19:55:27.878Z,14.03
2023-07-03T19:57:58.196Z,14.27
2023-07-03T20:00:28.209Z,13.95
2023-07-03T20:02:58.496Z,12.80
2023-07-03T20:05:28.548Z,16.53
2023-07-03T20:07:59.489Z,21.13
2023-07-03T20:10:29.337Z,14.70
2023-07-03T20:13:00.553Z,12.40
2023-07-03T20:15:32.099Z,14.77
2023-07-03T20:18:02.245Z,11.20
2023-07-03T20:20:32.378Z,11.83
2023-07-03T20:23:02.803Z,10.53
2023-07-03T20:25:32.783Z,15.40
2023-07-03T20:28:03.725Z,15.77
2023-07-03T20:30:33.474Z,14.27
2023-07-03T20:33:03.403Z,16.00
2023-07-03T20:35:33.455Z,19.03
2023-07-03T20:38:03.784Z,18.47
2023-07-03T20:40:33.552Z,25.17
2023-07-03T20:43:04.021Z,20.17
2023-07-03T20:45:34.970Z,17.60
2023-07-03T20:48:06.554Z,15.40
2023-07-03T20:50:42.364Z,13.27
2023-07-03T20:53:12.445Z,14.87
2023-07-03T20:55:44.259Z,16.20
2023-07-03T20:58:14.155Z,13.37
2023-07-03T21:00:44.269Z,16.33
2023-07-03T21:03:14.259Z,14.60
2023-07-03T21:05:44.714Z,11.43
2023-07-03T21:08:15.233Z,12.53
2023-07-03T21:10:45.472Z,11.87
2023-07-03T21:13:15.673Z,11.87
2023-07-03T21:15:46.538Z,15.07
2023-07-03T21:18:16.325Z,15.33
2023-07-03T21:20:46.826Z,12.10
2023-07-03T21:23:16.576Z,11.77
2023-07-03T21:25:48.326Z,12.33
2023-07-03T21:28:18.647Z,12.23
2023-07-03T21:30:48.585Z,10.73
2023-07-03T21:33:20.857Z,11.37
2023-07-03T21:35:52.693Z,13.47
2023-07-03T21:38:23.622Z,12.20
2023-07-03T21:40:54.966Z,14.30
2023-07-03T21:43:25.848Z,11.78
2023-07-03T21:46:03.207Z,13.32
2023-07-03T21:48:35.774Z,11.70
2023-07-03T21:51:07.325Z,14.27
2023-07-03T21:53:37.239Z,12.10
2023-07-03T21:56:10.019Z,12.73
2023-07-03T21:58:41.580Z,12.10
2023-07-03T22:01:19.068Z,11.93
2023-07-03T22:03:49.127Z,12.63
2023-07-03T22:06:19.269Z,12.13
2023-07-03T22:08:50.855Z,11.37
2023-07-03T22:11:20.977Z,13.60
2023-07-03T22:13:51.287Z,13.50
2023-07-03T22:16:22.042Z,11.97
2023-07-03T22:18:52.353Z,12.40
2023-07-03T22:21:22.583Z,14.63
2023-07-03T22:23:52.784Z,14.00
2023-07-03T22:26:22.668Z,14.57
2023-07-03T22:28:52.806Z,15.20
2023-07-03T22:31:24.974Z,19.13
2023-07-03T22:33:55.111Z,19.53
2023-07-03T22:36:25.431Z,20.73
2023-07-03T22:38:55.138Z,16.30
2023-07-03T22:41:25.455Z,14.03
2023-07-03T22:43:55.802Z,16.23
2023-07-03T22:46:26.350Z,13.60
2023-07-03T22:48:56.650Z,14.10
2023-07-03T22:51:26.962Z,13.60
2023-07-03T22:53:57.430Z,12.57
2023-07-03T22:56:28.425Z,11.93
2023-07-03T22:58:58.341Z,11.35
2023-07-03T23:01:28.662Z,11.83
2023-07-03T23:03:58.409Z,13.40
2023-07-03T23:06:28.277Z,11.60
2023-07-03T23:08:58.416Z,13.33
2023-07-03T23:11:28.656Z,12.30
2023-07-03T23:13:59.099Z,12.43
2023-07-03T23:16:29.421Z,11.67
2023-07-03T23:18:59.495Z,12.03
2023-07-03T23:21:29.623Z,11.67
2023-07-03T23:23:59.524Z,13.83
2023-07-03T23:26:29.478Z,13.87
2023-07-03T23:29:02.032Z,12.80
2023-07-03T23:31:32.049Z,13.33
2023-07-03T23:34:02.390Z,13.63
2023-07-03T23:36:34.013Z,11.10
2023-07-03T23:41:33.266Z,11.33
2023-07-03T23:44:03.264Z,12.33
2023-07-03T23:46:33.277Z,11.70
2023-07-03T23:49:03.379Z,12.40
2023-07-03T23:51:33.294Z,11.60
2023-07-03T23:54:03.608Z,12.27
2023-07-03T23:56:33.242Z,12.60
2023-07-03T23:59:04.382Z,12.23
